sensor_id;sensor_type;location;lat;lon;timestamp;P1;durP1;ratioP1;P2;durP2;ratioP2
4468;SDS011;2247;42.666;23.292;2022-11-11T00:00:18;32.80;;;19.93;;
4468;SDS011;2247;42.666;23.292;2022-11-11T00:02:45;29.80;;;19.03;;
4468;SDS011;2247;42.666;23.292;2022-11-11T00:05:14;33.53;;;19.57;;
4468;SDS011;2247;42.666;23.292;2022-11-11T00:07:42;37.97;;;21.23;;
4468;SDS011;2247;42.666;23.292;2022-11-11T00:10:09;30.33;;;20.33;;
4468;SDS011;2247;42.666;23.292;2022-11-11T00:12:36;32.07;;;18.83;;
4468;SDS011;2247;42.666;23.292;2022-11-11T00:15:03;36.80;;;19.23;;
4468;SDS011;2247;42.666;23.292;2022-11-11T00:17:32;33.50;;;19.37;;
4468;SDS011;2247;42.666;23.292;2022-11-11T00:20:17;32.53;;;18.97;;
4468;SDS011;2247;42.666;23.292;2022-11-11T00:23:02;32.43;;;20.53;;
4468;SDS011;2247;42.666;23.292;2022-11-11T00:25:50;36.47;;;19.77;;
4468;SDS011;2247;42.666;23.292;2022-11-11T00:28:18;37.83;;;18.70;;
4468;SDS011;2247;42.666;23.292;2022-11-11T00:30:45;32.60;;;20.43;;
4468;SDS011;2247;42.666;23.292;2022-11-11T00:33:11;33.70;;;20.23;;
4468;SDS011;2247;42.666;23.292;2022-11-11T00:35:40;32.70;;;19.30;;
4468;SDS011;2247;42.666;23.292;2022-11-11T00:38:18;32.20;;;19.00;;
4468;SDS011;2247;42.666;23.292;2022-11-11T00:41:02;34.53;;;19.30;;
4468;SDS011;2247;42.666;23.292;2022-11-11T00:43:29;34.33;;;20.60;;
4468;SDS011;2247;42.666;23.292;2022-11-11T00:45:56;34.37;;;21.03;;
4468;SDS011;2247;42.666;23.292;2022-11-11T00:48:37;32.30;;;20.80;;
4468;SDS011;2247;42.666;23.292;2022-11-11T00:51:23;32.30;;;18.60;;
4468;SDS011;2247;42.666;23.292;2022-11-11T00:53:50;34.20;;;20.57;;
4468;SDS011;2247;42.666;23.292;2022-11-11T00:56:16;34.50;;;19.90;;
4468;SDS011;2247;42.666;23.292;2022-11-11T00:58:43;30.93;;;20.00;;
4468;SDS011;2247;42.666;23.292;2022-11-11T01:01:11;38.43;;;21.67;;
4468;SDS011;2247;42.666;23.292;2022-11-11T01:03:37;35.50;;;21.67;;
4468;SDS011;2247;42.666;23.292;2022-11-11T01:06:05;35.40;;;21.27;;
4468;SDS011;2247;42.666;23.292;2022-11-11T01:08:33;38.30;;;20.50;;
4468;SDS011;2247;42.666;23.292;2022-11-11T01:11:00;35.20;;;19.97;;
4468;SDS011;2247;42.666;23.292;2022-11-11T01:13:28;34.70;;;20.07;;
4468;SDS011;2247;42.666;23.292;2022-11-11T01:15:57;38.03;;;20.13;;
4468;SDS011;2247;42.666;23.292;2022-11-11T01:18:25;34.00;;;20.50;;
4468;SDS011;2247;42.666;23.292;2022-11-11T01:20:57;31.63;;;19.70;;
4468;SDS011;2247;42.666;23.292;2022-11-11T01:23:25;32.70;;;19.93;;
4468;SDS011;2247;42.666;23.292;2022-11-11T01:25:53;36.13;;;20.40;;
4468;SDS011;2247;42.666;23.292;2022-11-11T01:28:21;34.57;;;19.60;;
4468;SDS011;2247;42.666;23.292;2022-11-11T01:30:47;32.30;;;19.23;;
4468;SDS011;2247;42.666;23.292;2022-11-11T01:33:14;37.17;;;20.50;;
4468;SDS011;2247;42.666;23.292;2022-11-11T01:35:41;39.70;;;22.33;;
4468;SDS011;2247;42.666;23.292;2022-11-11T01:38:07;39.43;;;22.70;;
4468;SDS011;2247;42.666;23.292;2022-11-11T01:40:41;40.10;;;21.33;;
4468;SDS011;2247;42.666;23.292;2022-11-11T01:43:20;36.07;;;21.70;;
4468;SDS011;2247;42.666;23.292;2022-11-11T01:45:53;31.53;;;20.40;;
4468;SDS011;2247;42.666;23.292;2022-11-11T01:48:26;35.83;;;22.17;;
4468;SDS011;2247;42.666;23.292;2022-11-11T01:51:17;32.93;;;21.13;;
4468;SDS011;2247;42.666;23.292;2022-11-11T01:53:51;32.30;;;20.63;;
4468;SDS011;2247;42.666;23.292;2022-11-11T01:56:21;36.73;;;20.43;;
4468;SDS011;2247;42.666;23.292;2022-11-11T01:58:50;38.67;;;21.90;;
4468;SDS011;2247;42.666;23.292;2022-11-11T02:01:20;41.20;;;23.00;;
4468;SDS011;2247;42.666;23.292;2022-11-11T02:03:48;42.47;;;25.20;;
4468;SDS011;2247;42.666;23.292;2022-11-11T02:06:30;42.13;;;23.60;;
4468;SDS011;2247;42.666;23.292;2022-11-11T02:08:58;42.80;;;25.40;;
4468;SDS011;2247;42.666;23.292;2022-11-11T02:11:26;46.10;;;25.93;;
4468;SDS011;2247;42.666;23.292;2022-11-11T02:14:13;50.27;;;25.57;;
4468;SDS011;2247;42.666;23.292;2022-11-11T02:16:57;39.07;;;23.30;;
4468;SDS011;2247;42.666;23.292;2022-11-11T02:19:26;41.07;;;23.67;;
4468;SDS011;2247;42.666;23.292;2022-11-11T02:22:02;36.33;;;22.50;;
4468;SDS011;2247;42.666;23.292;2022-11-11T02:24:35;43.60;;;23.57;;
4468;SDS011;2247;42.666;23.292;2022-11-11T02:27:04;40.93;;;24.33;;
4468;SDS011;2247;42.666;23.292;2022-11-11T02:29:33;42.73;;;24.80;;
4468;SDS011;2247;42.666;23.292;2022-11-11T02:32:03;44.50;;;24.37;;
4468;SDS011;2247;42.666;23.292;2022-11-11T02:34:30;54.40;;;25.07;;
4468;SDS011;2247;42.666;23.292;2022-11-11T02:36:58;33.53;;;22.23;;
4468;SDS011;2247;42.666;23.292;2022-11-11T02:39:28;37.87;;;22.27;;
4468;SDS011;2247;42.666;23.292;2022-11-11T02:41:58;38.80;;;25.07;;
4468;SDS011;2247;42.666;23.292;2022-11-11T02:44:25;41.00;;;24.03;;
4468;SDS011;2247;42.666;23.292;2022-11-11T02:46:52;43.93;;;23.90;;
4468;SDS011;2247;42.666;23.292;2022-11-11T02:49:19;37.13;;;23.50;;
4468;SDS011;2247;42.666;23.292;2022-11-11T02:51:46;49.10;;;23.67;;
4468;SDS011;2247;42.666;23.292;2022-11-11T02:54:13;38.27;;;23.43;;
4468;SDS011;2247;42.666;23.292;2022-11-11T02:56:40;39.13;;;21.90;;
4468;SDS011;2247;42.666;23.292;2022-11-11T02:59:26;39.00;;;21.93;;
4468;SDS011;2247;42.666;23.292;2022-11-11T03:01:53;34.13;;;20.90;;
4468;SDS011;2247;42.666;23.292;2022-11-11T03:04:20;29.47;;;19.60;;
4468;SDS011;2247;42.666;23.292;2022-11-11T03:06:47;36.67;;;20.70;;
4468;SDS011;2247;42.666;23.292;2022-11-11T03:09:14;32.30;;;20.10;;
4468;SDS011;2247;42.666;23.292;2022-11-11T03:11:42;35.27;;;21.73;;
4468;SDS011;2247;42.666;23.292;2022-11-11T03:14:09;37.87;;;20.43;;
4468;SDS011;2247;42.666;23.292;2022-11-11T03:16:37;37.00;;;21.70;;
4468;SDS011;2247;42.666;23.292;2022-11-11T03:19:21;33.40;;;21.30;;
4468;SDS011;2247;42.666;23.292;2022-11-11T03:21:48;36.27;;;22.30;;
4468;SDS011;2247;42.666;23.292;2022-11-11T03:24:15;36.47;;;21.97;;
4468;SDS011;2247;42.666;23.292;2022-11-11T03:26:41;33.33;;;21.37;;
4468;SDS011;2247;42.666;23.292;2022-11-11T03:29:07;34.33;;;20.83;;
4468;SDS011;2247;42.666;23.292;2022-11-11T03:31:34;34.83;;;22.33;;
4468;SDS011;2247;42.666;23.292;2022-11-11T03:34:03;34.60;;;21.07;;
4468;SDS011;2247;42.666;23.292;2022-11-11T03:36:43;35.60;;;22.20;;
4468;SDS011;2247;42.666;23.292;2022-11-11T03:39:28;39.40;;;20.77;;
4468;SDS011;2247;42.666;23.292;2022-11-11T03:41:55;37.33;;;21.90;;
4468;SDS011;2247;42.666;23.292;2022-11-11T03:44:22;39.27;;;22.67;;
4468;SDS011;2247;42.666;23.292;2022-11-11T03:46:48;38.07;;;22.03;;
4468;SDS011;2247;42.666;23.292;2022-11-11T03:49:17;40.03;;;22.17;;
4468;SDS011;2247;42.666;23.292;2022-11-11T03:51:44;32.53;;;20.83;;
4468;SDS011;2247;42.666;23.292;2022-11-11T03:54:11;37.67;;;22.07;;
4468;SDS011;2247;42.666;23.292;2022-11-11T03:56:37;38.47;;;22.60;;
4468;SDS011;2247;42.666;23.292;2022-11-11T03:59:04;33.67;;;22.07;;
4468;SDS011;2247;42.666;23.292;2022-11-11T04:01:31;38.90;;;24.13;;
4468;SDS011;2247;42.666;23.292;2022-11-11T04:04:17;39.50;;;24.20;;
4468;SDS011;2247;42.666;23.292;2022-11-11T04:07:01;41.83;;;23.57;;
4468;SDS011;2247;42.666;23.292;2022-11-11T04:09:46;42.33;;;24.87;;
4468;SDS011;2247;42.666;23.292;2022-11-11T04:12:31;45.97;;;25.57;;
4468;SDS011;2247;42.666;23.292;2022-11-11T04:15:21;41.80;;;24.97;;
4468;SDS011;2247;42.666;23.292;2022-11-11T04:18:05;39.20;;;24.23;;
4468;SDS011;2247;42.666;23.292;2022-11-11T04:20:33;39.40;;;23.73;;
4468;SDS011;2247;42.666;23.292;2022-11-11T04:23:23;36.43;;;22.90;;
4468;SDS011;2247;42.666;23.292;2022-11-11T04:25:50;40.47;;;22.70;;
4468;SDS011;2247;42.666;23.292;2022-11-11T04:28:18;36.50;;;22.70;;
4468;SDS011;2247;42.666;23.292;2022-11-11T04:31:02;38.50;;;21.60;;
4468;SDS011;2247;42.666;23.292;2022-11-11T04:33:29;36.10;;;22.80;;
4468;SDS011;2247;42.666;23.292;2022-11-11T04:35:57;38.10;;;23.97;;
4468;SDS011;2247;42.666;23.292;2022-11-11T04:38:24;41.83;;;22.80;;
4468;SDS011;2247;42.666;23.292;2022-11-11T04:41:09;35.37;;;21.67;;
4468;SDS011;2247;42.666;23.292;2022-11-11T04:43:37;33.57;;;21.60;;
4468;SDS011;2247;42.666;23.292;2022-11-11T04:46:17;38.13;;;21.93;;
4468;SDS011;2247;42.666;23.292;2022-11-11T04:48:44;34.93;;;22.10;;
4468;SDS011;2247;42.666;23.292;2022-11-11T04:51:12;31.90;;;19.77;;
4468;SDS011;2247;42.666;23.292;2022-11-11T04:53:39;30.77;;;19.17;;
4468;SDS011;2247;42.666;23.292;2022-11-11T04:56:07;31.67;;;19.80;;
4468;SDS011;2247;42.666;23.292;2022-11-11T04:58:51;32.73;;;20.83;;
4468;SDS011;2247;42.666;23.292;2022-11-11T05:01:38;31.30;;;19.70;;
4468;SDS011;2247;42.666;23.292;2022-11-11T05:04:23;33.93;;;20.50;;
4468;SDS011;2247;42.666;23.292;2022-11-11T05:06:52;32.73;;;19.77;;
4468;SDS011;2247;42.666;23.292;2022-11-11T05:09:38;29.50;;;18.87;;
4468;SDS011;2247;42.666;23.292;2022-11-11T05:12:08;32.73;;;20.13;;
4468;SDS011;2247;42.666;23.292;2022-11-11T05:14:34;28.10;;;18.77;;
4468;SDS011;2247;42.666;23.292;2022-11-11T05:17:18;35.63;;;20.50;;
4468;SDS011;2247;42.666;23.292;2022-11-11T05:20:03;34.50;;;20.60;;
4468;SDS011;2247;42.666;23.292;2022-11-11T05:22:50;31.80;;;19.30;;
4468;SDS011;2247;42.666;23.292;2022-11-11T05:25:17;31.43;;;18.93;;
4468;SDS011;2247;42.666;23.292;2022-11-11T05:27:49;28.67;;;19.27;;
4468;SDS011;2247;42.666;23.292;2022-11-11T05:30:17;31.70;;;19.50;;
4468;SDS011;2247;42.666;23.292;2022-11-11T05:32:45;28.90;;;18.83;;
4468;SDS011;2247;42.666;23.292;2022-11-11T05:35:13;31.83;;;20.30;;
4468;SDS011;2247;42.666;23.292;2022-11-11T05:37:40;36.53;;;20.67;;
4468;SDS011;2247;42.666;23.292;2022-11-11T05:40:10;33.50;;;20.17;;
4468;SDS011;2247;42.666;23.292;2022-11-11T05:42:40;35.67;;;21.20;;
4468;SDS011;2247;42.666;23.292;2022-11-11T05:45:07;32.47;;;20.27;;
4468;SDS011;2247;42.666;23.292;2022-11-11T05:47:35;37.47;;;20.17;;
4468;SDS011;2247;42.666;23.292;2022-11-11T05:50:02;33.23;;;19.93;;
4468;SDS011;2247;42.666;23.292;2022-11-11T05:52:29;30.40;;;19.50;;
4468;SDS011;2247;42.666;23.292;2022-11-11T05:54:56;28.87;;;18.97;;
4468;SDS011;2247;42.666;23.292;2022-11-11T05:57:25;36.93;;;20.17;;
4468;SDS011;2247;42.666;23.292;2022-11-11T05:59:53;32.20;;;19.20;;
4468;SDS011;2247;42.666;23.292;2022-11-11T06:02:19;32.00;;;19.47;;
4468;SDS011;2247;42.666;23.292;2022-11-11T06:04:46;33.37;;;20.60;;
4468;SDS011;2247;42.666;23.292;2022-11-11T06:07:13;35.63;;;21.80;;
4468;SDS011;2247;42.666;23.292;2022-11-11T06:09:40;31.00;;;20.17;;
4468;SDS011;2247;42.666;23.292;2022-11-11T06:12:07;35.47;;;20.70;;
4468;SDS011;2247;42.666;23.292;2022-11-11T06:14:35;36.50;;;19.70;;
4468;SDS011;2247;42.666;23.292;2022-11-11T06:17:03;35.17;;;21.00;;
4468;SDS011;2247;42.666;23.292;2022-11-11T06:19:30;38.10;;;22.10;;
4468;SDS011;2247;42.666;23.292;2022-11-11T06:21:57;42.37;;;23.60;;
4468;SDS011;2247;42.666;23.292;2022-11-11T06:24:25;37.93;;;22.23;;
4468;SDS011;2247;42.666;23.292;2022-11-11T06:26:54;40.83;;;21.50;;
4468;SDS011;2247;42.666;23.292;2022-11-11T06:29:21;35.70;;;20.77;;
4468;SDS011;2247;42.666;23.292;2022-11-11T06:31:50;34.80;;;22.20;;
4468;SDS011;2247;42.666;23.292;2022-11-11T06:34:17;40.17;;;20.97;;
4468;SDS011;2247;42.666;23.292;2022-11-11T06:36:43;36.53;;;20.93;;
4468;SDS011;2247;42.666;23.292;2022-11-11T06:39:11;38.77;;;21.97;;
4468;SDS011;2247;42.666;23.292;2022-11-11T06:41:37;38.93;;;21.67;;
4468;SDS011;2247;42.666;23.292;2022-11-11T06:44:04;35.27;;;21.10;;
4468;SDS011;2247;42.666;23.292;2022-11-11T06:46:31;35.87;;;21.30;;
4468;SDS011;2247;42.666;23.292;2022-11-11T06:48:59;39.17;;;21.03;;
4468;SDS011;2247;42.666;23.292;2022-11-11T06:51:26;35.60;;;19.57;;
4468;SDS011;2247;42.666;23.292;2022-11-11T06:53:52;45.87;;;24.13;;
4468;SDS011;2247;42.666;23.292;2022-11-11T06:56:19;33.23;;;19.50;;
4468;SDS011;2247;42.666;23.292;2022-11-11T06:58:46;32.83;;;20.23;;
4468;SDS011;2247;42.666;23.292;2022-11-11T07:01:13;34.77;;;19.90;;
4468;SDS011;2247;42.666;23.292;2022-11-11T07:03:40;34.87;;;19.27;;
4468;SDS011;2247;42.666;23.292;2022-11-11T07:06:09;35.47;;;18.83;;
4468;SDS011;2247;42.666;23.292;2022-11-11T07:08:37;36.10;;;20.00;;
4468;SDS011;2247;42.666;23.292;2022-11-11T07:11:08;28.37;;;17.50;;
4468;SDS011;2247;42.666;23.292;2022-11-11T07:13:35;30.10;;;18.77;;
4468;SDS011;2247;42.666;23.292;2022-11-11T07:16:01;29.50;;;18.57;;
4468;SDS011;2247;42.666;23.292;2022-11-11T07:18:28;39.80;;;19.30;;
4468;SDS011;2247;42.666;23.292;2022-11-11T07:20:56;33.70;;;19.83;;
4468;SDS011;2247;42.666;23.292;2022-11-11T07:23:24;28.50;;;17.87;;
4468;SDS011;2247;42.666;23.292;2022-11-11T07:25:51;32.30;;;19.60;;
4468;SDS011;2247;42.666;23.292;2022-11-11T07:28:18;27.37;;;17.07;;
4468;SDS011;2247;42.666;23.292;2022-11-11T07:30:44;28.87;;;17.80;;
4468;SDS011;2247;42.666;23.292;2022-11-11T07:33:11;25.40;;;15.33;;
4468;SDS011;2247;42.666;23.292;2022-11-11T07:35:38;28.63;;;16.50;;
4468;SDS011;2247;42.666;23.292;2022-11-11T07:38:05;27.20;;;15.13;;
4468;SDS011;2247;42.666;23.292;2022-11-11T07:40:33;25.80;;;16.07;;
4468;SDS011;2247;42.666;23.292;2022-11-11T07:43:00;24.47;;;14.60;;
4468;SDS011;2247;42.666;23.292;2022-11-11T07:45:27;26.80;;;16.13;;
4468;SDS011;2247;42.666;23.292;2022-11-11T07:47:53;25.87;;;16.40;;
4468;SDS011;2247;42.666;23.292;2022-11-11T07:50:20;24.57;;;15.00;;
4468;SDS011;2247;42.666;23.292;2022-11-11T07:52:47;26.53;;;16.40;;
4468;SDS011;2247;42.666;23.292;2022-11-11T07:55:14;24.60;;;15.00;;
4468;SDS011;2247;42.666;23.292;2022-11-11T07:57:42;28.13;;;16.23;;
4468;SDS011;2247;42.666;23.292;2022-11-11T08:00:10;29.00;;;15.60;;
4468;SDS011;2247;42.666;23.292;2022-11-11T08:02:38;31.90;;;15.70;;
4468;SDS011;2247;42.666;23.292;2022-11-11T08:05:05;265.43;;;21.90;;
4468;SDS011;2247;42.666;23.292;2022-11-11T08:07:32;27.63;;;15.30;;
4468;SDS011;2247;42.666;23.292;2022-11-11T08:09:59;23.20;;;14.00;;
4468;SDS011;2247;42.666;23.292;2022-11-11T08:12:26;25.63;;;14.40;;
4468;SDS011;2247;42.666;23.292;2022-11-11T08:15:11;23.63;;;13.53;;
4468;SDS011;2247;42.666;23.292;2022-11-11T08:17:38;24.33;;;14.03;;
4468;SDS011;2247;42.666;23.292;2022-11-11T08:20:06;20.47;;;12.63;;
4468;SDS011;2247;42.666;23.292;2022-11-11T08:22:35;21.43;;;13.03;;
4468;SDS011;2247;42.666;23.292;2022-11-11T08:25:03;24.40;;;14.60;;
4468;SDS011;2247;42.666;23.292;2022-11-11T08:27:31;20.57;;;13.43;;
4468;SDS011;2247;42.666;23.292;2022-11-11T08:29:57;23.17;;;14.07;;
4468;SDS011;2247;42.666;23.292;2022-11-11T08:32:26;25.60;;;13.97;;
4468;SDS011;2247;42.666;23.292;2022-11-11T08:34:53;23.60;;;14.30;;
4468;SDS011;2247;42.666;23.292;2022-11-11T08:37:20;23.93;;;14.33;;
4468;SDS011;2247;42.666;23.292;2022-11-11T08:39:47;23.63;;;13.27;;
4468;SDS011;2247;42.666;23.292;2022-11-11T08:42:13;29.70;;;15.90;;
4468;SDS011;2247;42.666;23.292;2022-11-11T08:44:40;23.23;;;14.03;;
4468;SDS011;2247;42.666;23.292;2022-11-11T08:47:07;23.53;;;13.30;;
4468;SDS011;2247;42.666;23.292;2022-11-11T08:49:35;23.80;;;14.60;;
4468;SDS011;2247;42.666;23.292;2022-11-11T08:52:02;22.77;;;13.57;;
4468;SDS011;2247;42.666;23.292;2022-11-11T08:54:29;22.57;;;13.73;;
4468;SDS011;2247;42.666;23.292;2022-11-11T08:56:56;20.07;;;12.87;;
4468;SDS011;2247;42.666;23.292;2022-11-11T08:59:22;26.40;;;14.60;;
4468;SDS011;2247;42.666;23.292;2022-11-11T09:01:49;24.57;;;14.00;;
4468;SDS011;2247;42.666;23.292;2022-11-11T09:04:16;23.30;;;14.43;;
4468;SDS011;2247;42.666;23.292;2022-11-11T09:06:44;26.53;;;12.40;;
4468;SDS011;2247;42.666;23.292;2022-11-11T09:09:12;23.57;;;12.30;;
4468;SDS011;2247;42.666;23.292;2022-11-11T09:11:39;21.50;;;12.90;;
4468;SDS011;2247;42.666;23.292;2022-11-11T09:14:06;20.73;;;11.67;;
4468;SDS011;2247;42.666;23.292;2022-11-11T09:16:34;21.90;;;13.23;;
4468;SDS011;2247;42.666;23.292;2022-11-11T09:19:00;18.07;;;11.50;;
4468;SDS011;2247;42.666;23.292;2022-11-11T09:21:28;29.30;;;12.47;;
4468;SDS011;2247;42.666;23.292;2022-11-11T09:23:56;22.10;;;12.10;;
4468;SDS011;2247;42.666;23.292;2022-11-11T09:26:24;24.43;;;13.70;;
4468;SDS011;2247;42.666;23.292;2022-11-11T09:28:51;18.60;;;11.37;;
4468;SDS011;2247;42.666;23.292;2022-11-11T09:31:18;17.33;;;11.63;;
4468;SDS011;2247;42.666;23.292;2022-11-11T09:33:45;19.40;;;10.83;;
4468;SDS011;2247;42.666;23.292;2022-11-11T09:36:13;18.63;;;10.87;;
4468;SDS011;2247;42.666;23.292;2022-11-11T09:38:40;17.50;;;11.73;;
4468;SDS011;2247;42.666;23.292;2022-11-11T09:41:11;17.00;;;11.70;;
4468;SDS011;2247;42.666;23.292;2022-11-11T09:43:45;19.20;;;11.47;;
4468;SDS011;2247;42.666;23.292;2022-11-11T09:46:29;37.53;;;21.10;;
4468;SDS011;2247;42.666;23.292;2022-11-11T09:51:58;12.50;;;8.97;;
4468;SDS011;2247;42.666;23.292;2022-11-11T09:54:33;13.23;;;9.37;;
4468;SDS011;2247;42.666;23.292;2022-11-11T09:57:05;17.20;;;10.20;;
4468;SDS011;2247;42.666;23.292;2022-11-11T09:59:41;15.03;;;9.90;;
4468;SDS011;2247;42.666;23.292;2022-11-11T10:02:15;12.73;;;9.23;;
4468;SDS011;2247;42.666;23.292;2022-11-11T10:04:48;14.03;;;9.63;;
4468;SDS011;2247;42.666;23.292;2022-11-11T10:07:24;14.97;;;9.77;;
4468;SDS011;2247;42.666;23.292;2022-11-11T10:09:59;13.60;;;9.37;;
4468;SDS011;2247;42.666;23.292;2022-11-11T10:12:36;12.00;;;9.13;;
4468;SDS011;2247;42.666;23.292;2022-11-11T10:15:10;13.03;;;8.70;;
4468;SDS011;2247;42.666;23.292;2022-11-11T10:17:39;10.00;;;7.90;;
4468;SDS011;2247;42.666;23.292;2022-11-11T10:20:19;12.33;;;8.03;;
4468;SDS011;2247;42.666;23.292;2022-11-11T10:22:52;10.67;;;7.87;;
4468;SDS011;2247;42.666;23.292;2022-11-11T10:25:26;17.90;;;8.40;;
4468;SDS011;2247;42.666;23.292;2022-11-11T10:27:58;10.80;;;7.93;;
4468;SDS011;2247;42.666;23.292;2022-11-11T10:30:29;10.73;;;7.97;;
4468;SDS011;2247;42.666;23.292;2022-11-11T10:32:58;13.33;;;9.30;;
4468;SDS011;2247;42.666;23.292;2022-11-11T10:35:28;12.20;;;8.77;;
4468;SDS011;2247;42.666;23.292;2022-11-11T10:38:01;10.93;;;8.53;;
4468;SDS011;2247;42.666;23.292;2022-11-11T10:40:41;15.60;;;8.23;;
4468;SDS011;2247;42.666;23.292;2022-11-11T10:43:17;13.67;;;8.20;;
4468;SDS011;2247;42.666;23.292;2022-11-11T10:45:49;12.07;;;8.40;;
4468;SDS011;2247;42.666;23.292;2022-11-11T10:48:22;10.33;;;7.43;;
4468;SDS011;2247;42.666;23.292;2022-11-11T10:50:56;11.10;;;8.10;;
4468;SDS011;2247;42.666;23.292;2022-11-11T10:53:29;12.63;;;8.07;;
4468;SDS011;2247;42.666;23.292;2022-11-11T10:56:02;9.40;;;7.30;;
4468;SDS011;2247;42.666;23.292;2022-11-11T10:58:36;10.67;;;8.00;;
4468;SDS011;2247;42.666;23.292;2022-11-11T11:01:09;9.73;;;7.60;;
4468;SDS011;2247;42.666;23.292;2022-11-11T11:03:39;8.13;;;6.67;;
4468;SDS011;2247;42.666;23.292;2022-11-11T11:06:09;14.13;;;8.73;;
4468;SDS011;2247;42.666;23.292;2022-11-11T11:08:40;12.60;;;7.97;;
4468;SDS011;2247;42.666;23.292;2022-11-11T11:11:12;14.50;;;9.23;;
4468;SDS011;2247;42.666;23.292;2022-11-11T11:13:47;10.33;;;7.90;;
4468;SDS011;2247;42.666;23.292;2022-11-11T11:16:19;11.17;;;7.53;;
4468;SDS011;2247;42.666;23.292;2022-11-11T11:21:47;14.27;;;8.23;;
4468;SDS011;2247;42.666;23.292;2022-11-11T11:24:19;13.33;;;8.33;;
4468;SDS011;2247;42.666;23.292;2022-11-11T11:26:49;10.53;;;6.73;;
4468;SDS011;2247;42.666;23.292;2022-11-11T11:29:26;11.33;;;7.67;;
4468;SDS011;2247;42.666;23.292;2022-11-11T11:31:55;8.90;;;6.77;;
4468;SDS011;2247;42.666;23.292;2022-11-11T11:34:22;9.30;;;7.17;;
4468;SDS011;2247;42.666;23.292;2022-11-11T11:37:09;11.83;;;6.87;;
4468;SDS011;2247;42.666;23.292;2022-11-11T11:39:36;6.50;;;5.80;;
4468;SDS011;2247;42.666;23.292;2022-11-11T11:42:04;7.10;;;5.57;;
4468;SDS011;2247;42.666;23.292;2022-11-11T11:44:33;10.57;;;6.70;;
4468;SDS011;2247;42.666;23.292;2022-11-11T11:50:00;7.17;;;5.60;;
4468;SDS011;2247;42.666;23.292;2022-11-11T11:52:44;8.03;;;6.30;;
4468;SDS011;2247;42.666;23.292;2022-11-11T11:55:21;7.80;;;6.10;;
4468;SDS011;2247;42.666;23.292;2022-11-11T11:57:53;8.40;;;6.50;;
4468;SDS011;2247;42.666;23.292;2022-11-11T12:00:30;9.97;;;7.47;;
4468;SDS011;2247;42.666;23.292;2022-11-11T12:03:12;8.47;;;6.30;;
4468;SDS011;2247;42.666;23.292;2022-11-11T12:06:00;8.97;;;6.30;;
4468;SDS011;2247;42.666;23.292;2022-11-11T12:08:38;7.97;;;6.37;;
4468;SDS011;2247;42.666;23.292;2022-11-11T12:11:16;10.90;;;6.53;;
4468;SDS011;2247;42.666;23.292;2022-11-11T12:13:57;14.00;;;6.90;;
4468;SDS011;2247;42.666;23.292;2022-11-11T12:16:44;8.50;;;6.53;;
4468;SDS011;2247;42.666;23.292;2022-11-11T12:19:23;8.77;;;6.30;;
4468;SDS011;2247;42.666;23.292;2022-11-11T12:22:01;14.93;;;6.20;;
4468;SDS011;2247;42.666;23.292;2022-11-11T12:24:43;7.50;;;5.93;;
4468;SDS011;2247;42.666;23.292;2022-11-11T12:27:22;10.47;;;5.80;;
4468;SDS011;2247;42.666;23.292;2022-11-11T12:30:02;8.57;;;5.73;;
4468;SDS011;2247;42.666;23.292;2022-11-11T12:32:45;8.03;;;5.50;;
4468;SDS011;2247;42.666;23.292;2022-11-11T12:35:32;7.87;;;5.30;;
4468;SDS011;2247;42.666;23.292;2022-11-11T12:38:12;8.30;;;6.30;;
4468;SDS011;2247;42.666;23.292;2022-11-11T12:40:59;7.10;;;5.43;;
4468;SDS011;2247;42.666;23.292;2022-11-11T12:43:35;8.47;;;6.00;;
4468;SDS011;2247;42.666;23.292;2022-11-11T12:46:13;7.00;;;5.73;;
4468;SDS011;2247;42.666;23.292;2022-11-11T12:48:49;8.60;;;5.20;;
4468;SDS011;2247;42.666;23.292;2022-11-11T12:51:30;7.77;;;5.90;;
4468;SDS011;2247;42.666;23.292;2022-11-11T12:54:04;7.77;;;5.90;;
4468;SDS011;2247;42.666;23.292;2022-11-11T12:56:43;6.20;;;5.10;;
4468;SDS011;2247;42.666;23.292;2022-11-11T12:59:21;11.23;;;6.43;;
4468;SDS011;2247;42.666;23.292;2022-11-11T13:02:00;8.27;;;5.73;;
4468;SDS011;2247;42.666;23.292;2022-11-11T13:04:44;10.97;;;6.77;;
4468;SDS011;2247;42.666;23.292;2022-11-11T13:10:30;13.93;;;5.83;;
4468;SDS011;2247;42.666;23.292;2022-11-11T13:13:09;19.03;;;6.53;;
4468;SDS011;2247;42.666;23.292;2022-11-11T13:15:51;14.03;;;7.80;;
4468;SDS011;2247;42.666;23.292;2022-11-11T13:18:19;12.70;;;7.13;;
4468;SDS011;2247;42.666;23.292;2022-11-11T13:20:55;12.07;;;6.80;;
4468;SDS011;2247;42.666;23.292;2022-11-11T13:23:25;10.83;;;6.83;;
4468;SDS011;2247;42.666;23.292;2022-11-11T13:25:53;7.13;;;6.00;;
4468;SDS011;2247;42.666;23.292;2022-11-11T13:28:28;7.47;;;5.57;;
4468;SDS011;2247;42.666;23.292;2022-11-11T13:31:02;7.30;;;5.50;;
4468;SDS011;2247;42.666;23.292;2022-11-11T13:33:37;11.50;;;5.90;;
4468;SDS011;2247;42.666;23.292;2022-11-11T13:36:08;9.23;;;6.07;;
4468;SDS011;2247;42.666;23.292;2022-11-11T13:38:43;7.93;;;6.07;;
4468;SDS011;2247;42.666;23.292;2022-11-11T13:41:12;9.37;;;6.43;;
4468;SDS011;2247;42.666;23.292;2022-11-11T13:43:47;6.80;;;5.70;;
4468;SDS011;2247;42.666;23.292;2022-11-11T13:46:31;11.10;;;5.83;;
4468;SDS011;2247;42.666;23.292;2022-11-11T13:49:01;7.70;;;5.83;;
4468;SDS011;2247;42.666;23.292;2022-11-11T13:51:34;9.40;;;6.80;;
4468;SDS011;2247;42.666;23.292;2022-11-11T13:54:04;11.97;;;7.10;;
4468;SDS011;2247;42.666;23.292;2022-11-11T13:56:45;8.77;;;6.60;;
4468;SDS011;2247;42.666;23.292;2022-11-11T13:59:16;10.47;;;7.43;;
4468;SDS011;2247;42.666;23.292;2022-11-11T14:01:48;13.53;;;6.80;;
4468;SDS011;2247;42.666;23.292;2022-11-11T14:07:55;11.30;;;7.50;;
4468;SDS011;2247;42.666;23.292;2022-11-11T14:10:42;10.70;;;7.80;;
4468;SDS011;2247;42.666;23.292;2022-11-11T14:16:03;12.50;;;8.17;;
4468;SDS011;2247;42.666;23.292;2022-11-11T14:18:43;15.87;;;8.57;;
4468;SDS011;2247;42.666;23.292;2022-11-11T14:21:15;16.03;;;8.83;;
4468;SDS011;2247;42.666;23.292;2022-11-11T14:24:20;17.33;;;8.63;;
4468;SDS011;2247;42.666;23.292;2022-11-11T14:26:55;18.87;;;9.13;;
4468;SDS011;2247;42.666;23.292;2022-11-11T14:29:25;13.23;;;9.00;;
4468;SDS011;2247;42.666;23.292;2022-11-11T14:34:53;17.07;;;9.23;;
4468;SDS011;2247;42.666;23.292;2022-11-11T14:37:45;17.80;;;9.60;;
4468;SDS011;2247;42.666;23.292;2022-11-11T14:40:39;18.10;;;10.50;;
4468;SDS011;2247;42.666;23.292;2022-11-11T14:46:03;18.70;;;10.50;;
4468;SDS011;2247;42.666;23.292;2022-11-11T14:51:40;17.07;;;10.27;;
4468;SDS011;2247;42.666;23.292;2022-11-11T14:54:21;23.40;;;9.97;;
4468;SDS011;2247;42.666;23.292;2022-11-11T14:57:00;16.67;;;10.13;;
4468;SDS011;2247;42.666;23.292;2022-11-11T14:59:31;16.20;;;11.43;;
4468;SDS011;2247;42.666;23.292;2022-11-11T15:02:00;17.87;;;11.40;;
4468;SDS011;2247;42.666;23.292;2022-11-11T15:04:27;20.67;;;11.63;;
4468;SDS011;2247;42.666;23.292;2022-11-11T15:07:02;18.37;;;11.20;;
4468;SDS011;2247;42.666;23.292;2022-11-11T15:09:38;20.03;;;11.97;;
4468;SDS011;2247;42.666;23.292;2022-11-11T15:12:23;22.23;;;12.70;;
4468;SDS011;2247;42.666;23.292;2022-11-11T15:15:00;25.93;;;14.27;;
4468;SDS011;2247;42.666;23.292;2022-11-11T15:17:37;25.90;;;13.60;;
4468;SDS011;2247;42.666;23.292;2022-11-11T15:23:11;21.80;;;12.93;;
4468;SDS011;2247;42.666;23.292;2022-11-11T15:25:48;22.30;;;13.33;;
4468;SDS011;2247;42.666;23.292;2022-11-11T15:28:23;18.33;;;12.30;;
4468;SDS011;2247;42.666;23.292;2022-11-11T15:31:05;23.10;;;13.50;;
4468;SDS011;2247;42.666;23.292;2022-11-11T15:33:45;25.40;;;14.00;;
4468;SDS011;2247;42.666;23.292;2022-11-11T15:36:23;20.43;;;13.40;;
4468;SDS011;2247;42.666;23.292;2022-11-11T15:38:59;23.20;;;13.57;;